sensor_id;sensor_type;location;lat;lon;timestamp;P1;durP1;ratioP1;P2;durP2;ratioP2
11328;SDS011;5719;42.714;23.732;2023-02-26T00:00:03;24.45;;;4.93;;
11328;SDS011;5719;42.714;23.732;2023-02-26T00:02:36;18.38;;;4.55;;
11328;SDS011;5719;42.714;23.732;2023-02-26T00:05:05;19.83;;;5.00;;
11328;SDS011;5719;42.714;23.732;2023-02-26T00:07:32;23.50;;;4.70;;
11328;SDS011;5719;42.714;23.732;2023-02-26T00:09:59;18.63;;;3.88;;
11328;SDS011;5719;42.714;23.732;2023-02-26T00:12:26;13.48;;;4.10;;
11328;SDS011;5719;42.714;23.732;2023-02-26T00:14:54;22.60;;;4.78;;
11328;SDS011;5719;42.714;23.732;2023-02-26T00:17:25;23.92;;;4.30;;
11328;SDS011;5719;42.714;23.732;2023-02-26T00:20:09;13.30;;;4.03;;
11328;SDS011;5719;42.714;23.732;2023-02-26T00:22:37;16.15;;;3.75;;
11328;SDS011;5719;42.714;23.732;2023-02-26T00:25:05;20.80;;;4.43;;
11328;SDS011;5719;42.714;23.732;2023-02-26T00:27:32;29.17;;;4.30;;
11328;SDS011;5719;42.714;23.732;2023-02-26T00:30:00;17.05;;;4.13;;
11328;SDS011;5719;42.714;23.732;2023-02-26T00:32:27;18.95;;;4.25;;
11328;SDS011;5719;42.714;23.732;2023-02-26T00:34:55;21.58;;;4.40;;
11328;SDS011;5719;42.714;23.732;2023-02-26T00:37:27;22.52;;;4.90;;
11328;SDS011;5719;42.714;23.732;2023-02-26T00:40:10;20.15;;;4.03;;
11328;SDS011;5719;42.714;23.732;2023-02-26T00:42:42;24.25;;;4.75;;
11328;SDS011;5719;42.714;23.732;2023-02-26T00:45:10;16.85;;;4.18;;
11328;SDS011;5719;42.714;23.732;2023-02-26T00:47:40;16.90;;;4.15;;
11328;SDS011;5719;42.714;23.732;2023-02-26T00:50:15;12.98;;;4.40;;
11328;SDS011;5719;42.714;23.732;2023-02-26T00:52:47;15.77;;;4.30;;
11328;SDS011;5719;42.714;23.732;2023-02-26T00:55:22;13.27;;;4.50;;
11328;SDS011;5719;42.714;23.732;2023-02-26T00:57:49;17.80;;;4.35;;
11328;SDS011;5719;42.714;23.732;2023-02-26T01:00:16;19.67;;;4.22;;
11328;SDS011;5719;42.714;23.732;2023-02-26T01:02:44;15.68;;;3.88;;
11328;SDS011;5719;42.714;23.732;2023-02-26T01:05:12;16.27;;;4.18;;
11328;SDS011;5719;42.714;23.732;2023-02-26T01:07:41;19.05;;;4.10;;
11328;SDS011;5719;42.714;23.732;2023-02-26T01:10:13;15.77;;;3.60;;
11328;SDS011;5719;42.714;23.732;2023-02-26T01:12:40;20.58;;;3.63;;
11328;SDS011;5719;42.714;23.732;2023-02-26T01:15:08;27.25;;;4.00;;
11328;SDS011;5719;42.714;23.732;2023-02-26T01:17:38;22.15;;;3.50;;
11328;SDS011;5719;42.714;23.732;2023-02-26T01:20:13;21.80;;;4.85;;
11328;SDS011;5719;42.714;23.732;2023-02-26T01:22:43;17.38;;;4.43;;
11328;SDS011;5719;42.714;23.732;2023-02-26T01:25:19;28.98;;;4.25;;
11328;SDS011;5719;42.714;23.732;2023-02-26T01:27:50;18.92;;;4.55;;
11328;SDS011;5719;42.714;23.732;2023-02-26T01:30:17;32.03;;;5.15;;
11328;SDS011;5719;42.714;23.732;2023-02-26T01:32:47;19.58;;;4.63;;
11328;SDS011;5719;42.714;23.732;2023-02-26T01:35:21;17.08;;;4.03;;
11328;SDS011;5719;42.714;23.732;2023-02-26T01:37:57;23.67;;;4.90;;
11328;SDS011;5719;42.714;23.732;2023-02-26T01:40:52;24.50;;;4.10;;
11328;SDS011;5719;42.714;23.732;2023-02-26T01:43:33;18.35;;;4.50;;
11328;SDS011;5719;42.714;23.732;2023-02-26T01:46:06;34.45;;;4.32;;
11328;SDS011;5719;42.714;23.732;2023-02-26T01:48:46;24.10;;;5.47;;
11328;SDS011;5719;42.714;23.732;2023-02-26T01:51:15;16.58;;;4.68;;
11328;SDS011;5719;42.714;23.732;2023-02-26T01:53:42;14.05;;;4.20;;
11328;SDS011;5719;42.714;23.732;2023-02-26T01:56:10;19.60;;;4.32;;
11328;SDS011;5719;42.714;23.732;2023-02-26T01:58:41;23.27;;;4.18;;
11328;SDS011;5719;42.714;23.732;2023-02-26T02:01:09;16.52;;;4.18;;
11328;SDS011;5719;42.714;23.732;2023-02-26T02:03:37;24.73;;;4.70;;
11328;SDS011;5719;42.714;23.732;2023-02-26T02:06:06;24.40;;;4.38;;
11328;SDS011;5719;42.714;23.732;2023-02-26T02:08:36;18.95;;;4.07;;
11328;SDS011;5719;42.714;23.732;2023-02-26T02:11:05;18.73;;;3.92;;
11328;SDS011;5719;42.714;23.732;2023-02-26T02:13:36;20.63;;;4.40;;
11328;SDS011;5719;42.714;23.732;2023-02-26T02:16:15;22.90;;;3.90;;
11328;SDS011;5719;42.714;23.732;2023-02-26T02:18:48;28.83;;;4.35;;
11328;SDS011;5719;42.714;23.732;2023-02-26T02:24:14;28.35;;;4.40;;
11328;SDS011;5719;42.714;23.732;2023-02-26T02:29:55;22.00;;;3.90;;
11328;SDS011;5719;42.714;23.732;2023-02-26T02:32:43;26.75;;;3.90;;
11328;SDS011;5719;42.714;23.732;2023-02-26T02:35:15;13.98;;;3.28;;
11328;SDS011;5719;42.714;23.732;2023-02-26T02:37:47;25.55;;;4.07;;
11328;SDS011;5719;42.714;23.732;2023-02-26T02:40:20;16.25;;;3.58;;
11328;SDS011;5719;42.714;23.732;2023-02-26T02:42:51;8.32;;;3.33;;
11328;SDS011;5719;42.714;23.732;2023-02-26T02:45:27;19.92;;;3.78;;
11328;SDS011;5719;42.714;23.732;2023-02-26T02:48:01;12.50;;;3.47;;
11328;SDS011;5719;42.714;23.732;2023-02-26T02:50:33;22.45;;;3.72;;
11328;SDS011;5719;42.714;23.732;2023-02-26T02:53:03;16.17;;;3.50;;
11328;SDS011;5719;42.714;23.732;2023-02-26T02:55:35;18.95;;;4.00;;
11328;SDS011;5719;42.714;23.732;2023-02-26T02:58:05;19.92;;;3.28;;
11328;SDS011;5719;42.714;23.732;2023-02-26T03:00:37;20.52;;;3.38;;
11328;SDS011;5719;42.714;23.732;2023-02-26T03:03:10;20.52;;;3.20;;
11328;SDS011;5719;42.714;23.732;2023-02-26T03:05:42;14.77;;;4.20;;
11328;SDS011;5719;42.714;23.732;2023-02-26T03:08:10;18.10;;;4.05;;
11328;SDS011;5719;42.714;23.732;2023-02-26T03:10:41;22.77;;;3.40;;
11328;SDS011;5719;42.714;23.732;2023-02-26T03:13:13;24.25;;;4.05;;
11328;SDS011;5719;42.714;23.732;2023-02-26T03:15:45;14.20;;;3.40;;
11328;SDS011;5719;42.714;23.732;2023-02-26T03:18:24;12.48;;;3.47;;
11328;SDS011;5719;42.714;23.732;2023-02-26T03:21:02;18.92;;;3.55;;
11328;SDS011;5719;42.714;23.732;2023-02-26T03:23:37;28.17;;;4.18;;
11328;SDS011;5719;42.714;23.732;2023-02-26T03:26:09;21.88;;;3.20;;
11328;SDS011;5719;42.714;23.732;2023-02-26T03:28:40;13.90;;;3.30;;
11328;SDS011;5719;42.714;23.732;2023-02-26T03:31:15;19.65;;;4.47;;
11328;SDS011;5719;42.714;23.732;2023-02-26T03:33:49;18.10;;;4.40;;
11328;SDS011;5719;42.714;23.732;2023-02-26T03:36:24;15.10;;;4.55;;
11328;SDS011;5719;42.714;23.732;2023-02-26T03:38:57;15.90;;;4.90;;
11328;SDS011;5719;42.714;23.732;2023-02-26T03:41:32;25.92;;;4.40;;
11328;SDS011;5719;42.714;23.732;2023-02-26T03:44:04;21.25;;;4.22;;
11328;SDS011;5719;42.714;23.732;2023-02-26T03:46:35;17.65;;;4.15;;
11328;SDS011;5719;42.714;23.732;2023-02-26T03:49:10;19.83;;;4.78;;
11328;SDS011;5719;42.714;23.732;2023-02-26T03:51:40;19.80;;;4.68;;
11328;SDS011;5719;42.714;23.732;2023-02-26T03:54:09;22.50;;;4.75;;
11328;SDS011;5719;42.714;23.732;2023-02-26T03:56:43;21.17;;;4.53;;
11328;SDS011;5719;42.714;23.732;2023-02-26T03:59:12;26.55;;;5.70;;
11328;SDS011;5719;42.714;23.732;2023-02-26T04:01:42;16.95;;;4.60;;
11328;SDS011;5719;42.714;23.732;2023-02-26T04:04:14;16.42;;;5.00;;
11328;SDS011;5719;42.714;23.732;2023-02-26T04:06:47;21.05;;;5.07;;
11328;SDS011;5719;42.714;23.732;2023-02-26T04:09:17;25.58;;;5.28;;
11328;SDS011;5719;42.714;23.732;2023-02-26T04:11:45;16.77;;;5.25;;
11328;SDS011;5719;42.714;23.732;2023-02-26T04:14:15;24.95;;;4.90;;
11328;SDS011;5719;42.714;23.732;2023-02-26T04:16:42;15.68;;;4.90;;
11328;SDS011;5719;42.714;23.732;2023-02-26T04:19:09;24.13;;;5.35;;
11328;SDS011;5719;42.714;23.732;2023-02-26T04:21:37;20.52;;;4.63;;
11328;SDS011;5719;42.714;23.732;2023-02-26T04:24:04;21.60;;;4.50;;
11328;SDS011;5719;42.714;23.732;2023-02-26T04:26:31;17.33;;;4.10;;
11328;SDS011;5719;42.714;23.732;2023-02-26T04:28:58;16.83;;;5.00;;
11328;SDS011;5719;42.714;23.732;2023-02-26T04:31:25;13.30;;;4.20;;
11328;SDS011;5719;42.714;23.732;2023-02-26T04:33:52;19.70;;;5.25;;
11328;SDS011;5719;42.714;23.732;2023-02-26T04:36:19;19.52;;;5.78;;
11328;SDS011;5719;42.714;23.732;2023-02-26T04:38:47;27.67;;;5.93;;
11328;SDS011;5719;42.714;23.732;2023-02-26T04:41:14;24.27;;;6.03;;
11328;SDS011;5719;42.714;23.732;2023-02-26T04:43:40;13.85;;;5.40;;
11328;SDS011;5719;42.714;23.732;2023-02-26T04:46:07;21.23;;;6.10;;
11328;SDS011;5719;42.714;23.732;2023-02-26T04:48:34;13.88;;;5.70;;
11328;SDS011;5719;42.714;23.732;2023-02-26T04:51:01;18.63;;;5.80;;
11328;SDS011;5719;42.714;23.732;2023-02-26T04:53:28;23.17;;;5.70;;
11328;SDS011;5719;42.714;23.732;2023-02-26T04:55:56;27.85;;;5.53;;
11328;SDS011;5719;42.714;23.732;2023-02-26T04:58:23;21.52;;;5.70;;
11328;SDS011;5719;42.714;23.732;2023-02-26T05:00:51;16.77;;;5.20;;
11328;SDS011;5719;42.714;23.732;2023-02-26T05:03:19;14.27;;;5.53;;
11328;SDS011;5719;42.714;23.732;2023-02-26T05:05:46;26.10;;;5.95;;
11328;SDS011;5719;42.714;23.732;2023-02-26T05:08:13;21.40;;;5.57;;
11328;SDS011;5719;42.714;23.732;2023-02-26T05:10:40;24.83;;;5.25;;
11328;SDS011;5719;42.714;23.732;2023-02-26T05:13:08;22.17;;;5.28;;
11328;SDS011;5719;42.714;23.732;2023-02-26T05:15:35;20.92;;;5.10;;
11328;SDS011;5719;42.714;23.732;2023-02-26T05:18:02;14.25;;;5.38;;
11328;SDS011;5719;42.714;23.732;2023-02-26T05:20:29;17.60;;;4.60;;
11328;SDS011;5719;42.714;23.732;2023-02-26T05:22:56;20.30;;;5.80;;
11328;SDS011;5719;42.714;23.732;2023-02-26T05:25:23;18.63;;;4.70;;
11328;SDS011;5719;42.714;23.732;2023-02-26T05:27:50;21.83;;;5.55;;
11328;SDS011;5719;42.714;23.732;2023-02-26T05:30:18;15.00;;;5.03;;
11328;SDS011;5719;42.714;23.732;2023-02-26T05:32:45;21.35;;;5.47;;
11328;SDS011;5719;42.714;23.732;2023-02-26T05:35:12;24.38;;;5.45;;
11328;SDS011;5719;42.714;23.732;2023-02-26T05:37:39;24.55;;;4.80;;
11328;SDS011;5719;42.714;23.732;2023-02-26T05:40:07;20.23;;;5.47;;
11328;SDS011;5719;42.714;23.732;2023-02-26T05:42:36;22.75;;;6.00;;
11328;SDS011;5719;42.714;23.732;2023-02-26T05:45:03;18.88;;;5.63;;
11328;SDS011;5719;42.714;23.732;2023-02-26T05:47:33;64.70;;;19.42;;
11328;SDS011;5719;42.714;23.732;2023-02-26T05:50:00;61.25;;;21.65;;
11328;SDS011;5719;42.714;23.732;2023-02-26T05:52:27;64.40;;;20.88;;
11328;SDS011;5719;42.714;23.732;2023-02-26T05:54:54;38.15;;;10.68;;
11328;SDS011;5719;42.714;23.732;2023-02-26T05:57:21;55.83;;;19.17;;
11328;SDS011;5719;42.714;23.732;2023-02-26T05:59:48;42.08;;;13.93;;
11328;SDS011;5719;42.714;23.732;2023-02-26T06:02:15;37.35;;;12.80;;
11328;SDS011;5719;42.714;23.732;2023-02-26T06:04:45;67.25;;;20.77;;
11328;SDS011;5719;42.714;23.732;2023-02-26T06:07:12;52.42;;;19.17;;
11328;SDS011;5719;42.714;23.732;2023-02-26T06:09:39;77.65;;;25.15;;
11328;SDS011;5719;42.714;23.732;2023-02-26T06:12:06;54.40;;;20.60;;
11328;SDS011;5719;42.714;23.732;2023-02-26T06:14:34;64.15;;;22.27;;
11328;SDS011;5719;42.714;23.732;2023-02-26T06:17:01;49.75;;;18.17;;
11328;SDS011;5719;42.714;23.732;2023-02-26T06:19:29;41.25;;;15.15;;
11328;SDS011;5719;42.714;23.732;2023-02-26T06:21:58;30.17;;;10.05;;
11328;SDS011;5719;42.714;23.732;2023-02-26T06:24:25;44.50;;;14.30;;
11328;SDS011;5719;42.714;23.732;2023-02-26T06:26:52;31.30;;;11.77;;
11328;SDS011;5719;42.714;23.732;2023-02-26T06:29:19;32.03;;;10.25;;
11328;SDS011;5719;42.714;23.732;2023-02-26T06:31:46;34.42;;;11.98;;
11328;SDS011;5719;42.714;23.732;2023-02-26T06:34:13;36.92;;;10.80;;
11328;SDS011;5719;42.714;23.732;2023-02-26T06:36:40;29.63;;;9.82;;
11328;SDS011;5719;42.714;23.732;2023-02-26T06:39:08;30.73;;;8.45;;
11328;SDS011;5719;42.714;23.732;2023-02-26T06:41:36;23.25;;;7.65;;
11328;SDS011;5719;42.714;23.732;2023-02-26T06:44:03;26.05;;;7.78;;
11328;SDS011;5719;42.714;23.732;2023-02-26T06:46:30;33.83;;;10.75;;
11328;SDS011;5719;42.714;23.732;2023-02-26T06:48:57;37.28;;;8.90;;
11328;SDS011;5719;42.714;23.732;2023-02-26T06:51:24;34.17;;;9.00;;
11328;SDS011;5719;42.714;23.732;2023-02-26T06:53:51;33.05;;;6.15;;
11328;SDS011;5719;42.714;23.732;2023-02-26T06:56:19;32.88;;;8.18;;
11328;SDS011;5719;42.714;23.732;2023-02-26T06:58:47;27.48;;;4.97;;
11328;SDS011;5719;42.714;23.732;2023-02-26T07:01:13;23.48;;;4.22;;
11328;SDS011;5719;42.714;23.732;2023-02-26T07:03:41;23.52;;;4.35;;
11328;SDS011;5719;42.714;23.732;2023-02-26T07:06:08;21.98;;;3.97;;
11328;SDS011;5719;42.714;23.732;2023-02-26T07:08:37;25.17;;;3.70;;
11328;SDS011;5719;42.714;23.732;2023-02-26T07:11:05;22.63;;;4.30;;
11328;SDS011;5719;42.714;23.732;2023-02-26T07:13:35;29.48;;;3.92;;
11328;SDS011;5719;42.714;23.732;2023-02-26T07:16:02;19.27;;;3.95;;
11328;SDS011;5719;42.714;23.732;2023-02-26T07:18:31;22.05;;;3.90;;
11328;SDS011;5719;42.714;23.732;2023-02-26T07:20:58;24.48;;;4.47;;
11328;SDS011;5719;42.714;23.732;2023-02-26T07:23:25;17.42;;;3.88;;
11328;SDS011;5719;42.714;23.732;2023-02-26T07:25:52;21.67;;;3.83;;
11328;SDS011;5719;42.714;23.732;2023-02-26T07:28:20;21.92;;;3.95;;
11328;SDS011;5719;42.714;23.732;2023-02-26T07:30:49;24.85;;;5.53;;
11328;SDS011;5719;42.714;23.732;2023-02-26T07:33:16;19.83;;;3.20;;
11328;SDS011;5719;42.714;23.732;2023-02-26T07:35:43;21.17;;;3.67;;
11328;SDS011;5719;42.714;23.732;2023-02-26T07:38:10;14.43;;;4.07;;
11328;SDS011;5719;42.714;23.732;2023-02-26T07:40:37;23.08;;;3.95;;
11328;SDS011;5719;42.714;23.732;2023-02-26T07:43:04;18.98;;;4.10;;
11328;SDS011;5719;42.714;23.732;2023-02-26T07:45:31;26.98;;;3.63;;
11328;SDS011;5719;42.714;23.732;2023-02-26T07:47:59;20.05;;;3.20;;
11328;SDS011;5719;42.714;23.732;2023-02-26T07:50:26;22.20;;;3.67;;
11328;SDS011;5719;42.714;23.732;2023-02-26T07:52:54;16.55;;;3.30;;
11328;SDS011;5719;42.714;23.732;2023-02-26T07:55:21;12.90;;;3.53;;
11328;SDS011;5719;42.714;23.732;2023-02-26T07:57:48;17.42;;;3.40;;
11328;SDS011;5719;42.714;23.732;2023-02-26T08:00:15;21.13;;;3.92;;
11328;SDS011;5719;42.714;23.732;2023-02-26T08:02:43;19.27;;;3.92;;
11328;SDS011;5719;42.714;23.732;2023-02-26T08:05:12;18.98;;;3.85;;
11328;SDS011;5719;42.714;23.732;2023-02-26T08:07:39;27.42;;;4.47;;
11328;SDS011;5719;42.714;23.732;2023-02-26T08:10:06;19.95;;;3.65;;
11328;SDS011;5719;42.714;23.732;2023-02-26T08:12:33;19.10;;;3.88;;
11328;SDS011;5719;42.714;23.732;2023-02-26T08:15:00;28.83;;;3.90;;
11328;SDS011;5719;42.714;23.732;2023-02-26T08:17:27;19.23;;;3.58;;
11328;SDS011;5719;42.714;23.732;2023-02-26T08:19:54;21.83;;;3.78;;
11328;SDS011;5719;42.714;23.732;2023-02-26T08:22:23;27.75;;;4.35;;
11328;SDS011;5719;42.714;23.732;2023-02-26T08:24:51;23.50;;;3.78;;
11328;SDS011;5719;42.714;23.732;2023-02-26T08:27:18;17.73;;;3.70;;
11328;SDS011;5719;42.714;23.732;2023-02-26T08:29:46;18.48;;;3.70;;
11328;SDS011;5719;42.714;23.732;2023-02-26T08:32:14;23.33;;;3.67;;
11328;SDS011;5719;42.714;23.732;2023-02-26T08:34:43;20.73;;;3.75;;
11328;SDS011;5719;42.714;23.732;2023-02-26T08:37:10;18.50;;;3.67;;
11328;SDS011;5719;42.714;23.732;2023-02-26T08:39:39;29.10;;;4.25;;
11328;SDS011;5719;42.714;23.732;2023-02-26T08:42:07;28.40;;;4.05;;
11328;SDS011;5719;42.714;23.732;2023-02-26T08:44:35;20.40;;;3.80;;
11328;SDS011;5719;42.714;23.732;2023-02-26T08:47:02;26.42;;;4.20;;
11328;SDS011;5719;42.714;23.732;2023-02-26T08:49:29;23.20;;;4.60;;
11328;SDS011;5719;42.714;23.732;2023-02-26T08:51:56;22.45;;;4.38;;
11328;SDS011;5719;42.714;23.732;2023-02-26T08:54:23;24.33;;;4.80;;
11328;SDS011;5719;42.714;23.732;2023-02-26T08:56:52;24.13;;;4.57;;
11328;SDS011;5719;42.714;23.732;2023-02-26T08:59:21;22.52;;;4.53;;
11328;SDS011;5719;42.714;23.732;2023-02-26T09:01:49;23.88;;;4.32;;
11328;SDS011;5719;42.714;23.732;2023-02-26T09:04:16;19.38;;;3.78;;
11328;SDS011;5719;42.714;23.732;2023-02-26T09:06:43;22.83;;;3.50;;
11328;SDS011;5719;42.714;23.732;2023-02-26T09:09:10;30.63;;;4.20;;
11328;SDS011;5719;42.714;23.732;2023-02-26T09:11:37;21.38;;;3.47;;
11328;SDS011;5719;42.714;23.732;2023-02-26T09:14:06;24.33;;;4.30;;
11328;SDS011;5719;42.714;23.732;2023-02-26T09:16:33;23.77;;;4.93;;
11328;SDS011;5719;42.714;23.732;2023-02-26T09:19:01;22.88;;;3.85;;
11328;SDS011;5719;42.714;23.732;2023-02-26T09:21:28;29.30;;;5.55;;
11328;SDS011;5719;42.714;23.732;2023-02-26T09:23:55;23.55;;;3.72;;
11328;SDS011;5719;42.714;23.732;2023-02-26T09:26:22;21.08;;;4.22;;
11328;SDS011;5719;42.714;23.732;2023-02-26T09:28:49;22.42;;;3.97;;
11328;SDS011;5719;42.714;23.732;2023-02-26T09:31:19;24.58;;;3.58;;
11328;SDS011;5719;42.714;23.732;2023-02-26T09:33:46;22.02;;;4.18;;
11328;SDS011;5719;42.714;23.732;2023-02-26T09:36:13;19.33;;;3.97;;
11328;SDS011;5719;42.714;23.732;2023-02-26T09:38:40;20.38;;;3.55;;
11328;SDS011;5719;42.714;23.732;2023-02-26T09:41:09;28.63;;;4.18;;
11328;SDS011;5719;42.714;23.732;2023-02-26T09:43:52;35.20;;;4.15;;
11328;SDS011;5719;42.714;23.732;2023-02-26T09:46:39;28.33;;;4.20;;
11328;SDS011;5719;42.714;23.732;2023-02-26T09:49:18;19.83;;;4.10;;
11328;SDS011;5719;42.714;23.732;2023-02-26T09:51:53;24.38;;;4.65;;
11328;SDS011;5719;42.714;23.732;2023-02-26T09:54:23;21.92;;;3.95;;
11328;SDS011;5719;42.714;23.732;2023-02-26T09:56:54;30.40;;;4.15;;
11328;SDS011;5719;42.714;23.732;2023-02-26T09:59:25;20.15;;;4.85;;
11328;SDS011;5719;42.714;23.732;2023-02-26T10:01:57;22.20;;;3.80;;
11328;SDS011;5719;42.714;23.732;2023-02-26T10:04:37;28.67;;;4.70;;
11328;SDS011;5719;42.714;23.732;2023-02-26T10:07:23;20.67;;;4.22;;
11328;SDS011;5719;42.714;23.732;2023-02-26T10:09:58;32.03;;;5.65;;
11328;SDS011;5719;42.714;23.732;2023-02-26T10:12:34;27.02;;;4.30;;
11328;SDS011;5719;42.714;23.732;2023-02-26T10:15:05;27.20;;;3.95;;
11328;SDS011;5719;42.714;23.732;2023-02-26T10:17:40;29.52;;;4.13;;
11328;SDS011;5719;42.714;23.732;2023-02-26T10:20:15;24.48;;;4.80;;
11328;SDS011;5719;42.714;23.732;2023-02-26T10:22:54;17.38;;;4.30;;
11328;SDS011;5719;42.714;23.732;2023-02-26T10:25:25;29.48;;;4.20;;
11328;SDS011;5719;42.714;23.732;2023-02-26T10:27:57;20.40;;;3.88;;
11328;SDS011;5719;42.714;23.732;2023-02-26T10:30:31;24.63;;;3.67;;
11328;SDS011;5719;42.714;23.732;2023-02-26T10:33:06;22.27;;;4.68;;
11328;SDS011;5719;42.714;23.732;2023-02-26T10:35:46;31.00;;;4.05;;
11328;SDS011;5719;42.714;23.732;2023-02-26T10:38:19;30.05;;;4.43;;
11328;SDS011;5719;42.714;23.732;2023-02-26T10:40:50;34.65;;;4.65;;
11328;SDS011;5719;42.714;23.732;2023-02-26T10:43:22;23.35;;;4.35;;
11328;SDS011;5719;42.714;23.732;2023-02-26T10:45:57;26.85;;;4.57;;
11328;SDS011;5719;42.714;23.732;2023-02-26T10:48:39;22.27;;;4.53;;
11328;SDS011;5719;42.714;23.732;2023-02-26T10:51:17;34.27;;;4.10;;
11328;SDS011;5719;42.714;23.732;2023-02-26T10:53:46;28.40;;;3.88;;
11328;SDS011;5719;42.714;23.732;2023-02-26T10:56:19;19.80;;;4.05;;
11328;SDS011;5719;42.714;23.732;2023-02-26T10:58:50;24.75;;;3.50;;
11328;SDS011;5719;42.714;23.732;2023-02-26T11:01:20;35.85;;;4.10;;
11328;SDS011;5719;42.714;23.732;2023-02-26T11:03:50;28.45;;;5.18;;
11328;SDS011;5719;42.714;23.732;2023-02-26T11:06:22;24.45;;;3.30;;
11328;SDS011;5719;42.714;23.732;2023-02-26T11:08:53;22.55;;;3.25;;
11328;SDS011;5719;42.714;23.732;2023-02-26T11:11:34;23.67;;;3.13;;
11328;SDS011;5719;42.714;23.732;2023-02-26T11:14:04;20.53;;;3.13;;
11328;SDS011;5719;42.714;23.732;2023-02-26T11:16:32;19.25;;;3.38;;
11328;SDS011;5719;42.714;23.732;2023-02-26T11:19:01;22.30;;;4.43;;
11328;SDS011;5719;42.714;23.732;2023-02-26T11:21:34;25.17;;;4.70;;
11328;SDS011;5719;42.714;23.732;2023-02-26T11:24:05;33.25;;;4.13;;
11328;SDS011;5719;42.714;23.732;2023-02-26T11:26:35;22.27;;;4.65;;
11328;SDS011;5719;42.714;23.732;2023-02-26T11:29:03;36.95;;;4.88;;
11328;SDS011;5719;42.714;23.732;2023-02-26T11:31:31;36.75;;;5.30;;
11328;SDS011;5719;42.714;23.732;2023-02-26T11:33:59;19.40;;;4.40;;
11328;SDS011;5719;42.714;23.732;2023-02-26T11:36:30;27.95;;;4.93;;
11328;SDS011;5719;42.714;23.732;2023-02-26T11:39:01;17.25;;;4.25;;
11328;SDS011;5719;42.714;23.732;2023-02-26T11:41:30;25.75;;;4.45;;
11328;SDS011;5719;42.714;23.732;2023-02-26T11:44:04;27.55;;;4.80;;
11328;SDS011;5719;42.714;23.732;2023-02-26T11:46:35;30.17;;;4.72;;
11328;SDS011;5719;42.714;23.732;2023-02-26T11:49:08;27.52;;;4.53;;
11328;SDS011;5719;42.714;23.732;2023-02-26T11:51:41;27.17;;;4.65;;
11328;SDS011;5719;42.714;23.732;2023-02-26T11:54:18;35.42;;;5.10;;
11328;SDS011;5719;42.714;23.732;2023-02-26T11:56:47;22.77;;;4.03;;
11328;SDS011;5719;42.714;23.732;2023-02-26T11:59:16;24.75;;;4.03;;
11328;SDS011;5719;42.714;23.732;2023-02-26T12:01:45;26.42;;;4.40;;
11328;SDS011;5719;42.714;23.732;2023-02-26T12:04:15;25.60;;;4.45;;
11328;SDS011;5719;42.714;23.732;2023-02-26T12:06:45;21.23;;;4.40;;
11328;SDS011;5719;42.714;23.732;2023-02-26T12:09:14;23.95;;;4.30;;
11328;SDS011;5719;42.714;23.732;2023-02-26T12:14:38;27.27;;;4.32;;
11328;SDS011;5719;42.714;23.732;2023-02-26T12:17:20;26.50;;;4.78;;
11328;SDS011;5719;42.714;23.732;2023-02-26T12:20:01;19.70;;;3.92;;
11328;SDS011;5719;42.714;23.732;2023-02-26T12:22:46;21.25;;;3.47;;
11328;SDS011;5719;42.714;23.732;2023-02-26T12:25:27;21.25;;;4.70;;
11328;SDS011;5719;42.714;23.732;2023-02-26T12:31:08;28.23;;;3.60;;
11328;SDS011;5719;42.714;23.732;2023-02-26T12:33:55;23.98;;;3.97;;
11328;SDS011;5719;42.714;23.732;2023-02-26T12:36:37;21.48;;;3.20;;
11328;SDS011;5719;42.714;23.732;2023-02-26T12:39:16;32.67;;;4.03;;
11328;SDS011;5719;42.714;23.732;2023-02-26T12:41:58;20.52;;;3.85;;
11328;SDS011;5719;42.714;23.732;2023-02-26T12:44:51;23.20;;;3.60;;
11328;SDS011;5719;42.714;23.732;2023-02-26T12:47:33;40.60;;;5.45;;
11328;SDS011;5719;42.714;23.732;2023-02-26T12:53:03;16.40;;;4.28;;
11328;SDS011;5719;42.714;23.732;2023-02-26T12:55:54;23.00;;;3.45;;
11328;SDS011;5719;42.714;23.732;2023-02-26T12:58:34;29.90;;;3.75;;
11328;SDS011;5719;42.714;23.732;2023-02-26T13:01:17;25.23;;;4.32;;
11328;SDS011;5719;42.714;23.732;2023-02-26T13:04:06;16.55;;;3.42;;
11328;SDS011;5719;42.714;23.732;2023-02-26T13:07:08;22.33;;;4.20;;
11328;SDS011;5719;42.714;23.732;2023-02-26T13:09:57;24.92;;;4.65;;
11328;SDS011;5719;42.714;23.732;2023-02-26T13:12:31;32.05;;;4.82;;
11328;SDS011;5719;42.714;23.732;2023-02-26T13:15:13;25.08;;;4.28;;
11328;SDS011;5719;42.714;23.732;2023-02-26T13:17:49;24.27;;;4.00;;
11328;SDS011;5719;42.714;23.732;2023-02-26T13:20:23;27.10;;;4.05;;
11328;SDS011;5719;42.714;23.732;2023-02-26T13:22:52;28.70;;;5.30;;
11328;SDS011;5719;42.714;23.732;2023-02-26T13:25:27;27.38;;;4.45;;
11328;SDS011;5719;42.714;23.732;2023-02-26T13:27:59;19.83;;;4.03;;
11328;SDS011;5719;42.714;23.732;2023-02-26T13:30:29;26.80;;;4.32;;
11328;SDS011;5719;42.714;23.732;2023-02-26T13:33:01;28.85;;;3.53;;
11328;SDS011;5719;42.714;23.732;2023-02-26T13:35:29;19.85;;;3.95;;
11328;SDS011;5719;42.714;23.732;2023-02-26T13:38:01;26.35;;;4.07;;
11328;SDS011;5719;42.714;23.732;2023-02-26T13:40:46;30.25;;;4.93;;
11328;SDS011;5719;42.714;23.732;2023-02-26T13:43:24;36.17;;;5.28;;
11328;SDS011;5719;42.714;23.732;2023-02-26T13:46:06;28.80;;;4.35;;
11328;SDS011;5719;42.714;23.732;2023-02-26T13:51:22;18.45;;;4.07;;
11328;SDS011;5719;42.714;23.732;2023-02-26T13:53:59;25.23;;;4.00;;
11328;SDS011;5719;42.714;23.732;2023-02-26T13:56:51;21.77;;;4.68;;
11328;SDS011;5719;42.714;23.732;2023-02-26T13:59:24;18.88;;;5.05;;
11328;SDS011;5719;42.714;23.732;2023-02-26T14:05:06;28.15;;;4.78;;
11328;SDS011;5719;42.714;23.732;2023-02-26T14:08:17;27.67;;;5.32;;
11328;SDS011;5719;42.714;23.732;2023-02-26T14:10:53;40.00;;;4.40;;
11328;SDS011;5719;42.714;23.732;2023-02-26T14:13:29;22.80;;;4.50;;
11328;SDS011;5719;42.714;23.732;2023-02-26T14:16:00;25.70;;;5.05;;
11328;SDS011;5719;42.714;23.732;2023-02-26T14:18:35;24.83;;;4.65;;
11328;SDS011;5719;42.714;23.732;2023-02-26T14:24:04;27.20;;;5.00;;
11328;SDS011;5719;42.714;23.732;2023-02-26T14:26:38;22.52;;;4.13;;
11328;SDS011;5719;42.714;23.732;2023-02-26T14:29:14;17.20;;;4.10;;
11328;SDS011;5719;42.714;23.732;2023-02-26T14:34:16;25.08;;;4.93;;
11328;SDS011;5719;42.714;23.732;2023-02-26T14:36:50;21.87;;;4.10;;
11328;SDS011;5719;42.714;23.732;2023-02-26T14:39:24;24.85;;;4.90;;
11328;SDS011;5719;42.714;23.732;2023-02-26T14:41:58;34.53;;;4.80;;
11328;SDS011;5719;42.714;23.732;2023-02-26T14:44:31;23.95;;;4.50;;
11328;SDS011;5719;42.714;23.732;2023-02-26T14:47:02;23.83;;;4.82;;
11328;SDS011;5719;42.714;23.732;2023-02-26T14:49:31;26.60;;;4.85;;
11328;SDS011;5719;42.714;23.732;2023-02-26T14:55:02;27.50;;;4.60;;
11328;SDS011;5719;42.714;23.732;2023-02-26T14:57:46;28.60;;;4.70;;
11328;SDS011;5719;42.714;23.732;2023-02-26T15:00:27;35.17;;;5.28;;
11328;SDS011;5719;42.714;23.732;2023-02-26T15:03:12;31.48;;;5.00;;
11328;SDS011;5719;42.714;23.732;2023-02-26T15:06:03;35.45;;;5.68;;
11328;SDS011;5719;42.714;23.732;2023-02-26T15:08:45;29.38;;;5.40;;
11328;SDS011;5719;42.714;23.732;2023-02-26T15:17:28;31.40;;;4.32;;
11328;SDS011;5719;42.714;23.732;2023-02-26T15:20:04;26.33;;;3.72;;
11328;SDS011;5719;42.714;23.732;2023-02-26T15:22:47;19.65;;;3.67;;
11328;SDS011;5719;42.714;23.732;2023-02-26T15:27:53;21.33;;;3.65;;
11328;SDS011;5719;42.714;23.732;2023-02-26T15:30:21;22.15;;;3.88;;
11328;SDS011;5719;42.714;23.732;2023-02-26T15:32:54;13.45;;;3.58;;
11328;SDS011;5719;42.714;23.732;2023-02-26T15:35:22;26.45;;;4.15;;